KCVO - Corvallis, OR
Updated: Mon, 20-Feb-2017 11:15pm PST

 Wind from calm
Wind: Calm
Temperature: 46°F , 8°C
Dew Point: 45°F , 7°C
Humidity: 93%
Barometer: 29.64 inHg , 1003.7 hPa
Visibility: 8 miles , 13 km
2017/02/21 07:15 KCVO 210715Z 00000KT 8SM 08/07 A2964 RMK AO1